createdAt,value
2018-01-17T00:00:20.945Z,5.60
2018-01-17T00:02:49.685Z,7.68
2018-01-17T00:05:18.056Z,5.53
2018-01-17T00:07:46.881Z,7.87
2018-01-17T00:10:15.225Z,9.90
2018-01-17T00:12:43.582Z,6.15
2018-01-17T00:15:11.949Z,7.37
2018-01-17T00:17:40.294Z,8.52
2018-01-17T00:20:08.592Z,8.43
2018-01-17T00:22:42.073Z,6.40
2018-01-17T00:25:10.421Z,7.93
2018-01-17T00:27:39.164Z,7.40
2018-01-17T00:30:07.883Z,5.95
2018-01-17T00:32:36.189Z,7.70
2018-01-17T00:35:04.743Z,6.22
2018-01-17T00:37:33.048Z,5.93
2018-01-17T00:40:01.401Z,10.43
2018-01-17T00:42:29.859Z,8.52
2018-01-17T00:44:58.673Z,11.65
2018-01-17T00:47:28.600Z,7.95
2018-01-17T00:49:58.096Z,8.30
2018-01-17T00:52:27.916Z,8.10
2018-01-17T00:54:56.238Z,6.87
2018-01-17T00:57:24.905Z,6.57
2018-01-17T00:59:53.478Z,6.85
2018-01-17T01:02:21.765Z,9.75
2018-01-17T01:04:50.300Z,7.05
2018-01-17T01:07:18.630Z,6.47
2018-01-17T01:09:48.140Z,5.72
2018-01-17T01:12:16.734Z,4.40
2018-01-17T01:14:45.369Z,5.22
2018-01-17T01:17:15.333Z,4.28
2018-01-17T01:19:44.385Z,4.35
2018-01-17T01:22:12.670Z,6.37
2018-01-17T01:24:41.025Z,5.12
2018-01-17T01:27:10.405Z,3.30
2018-01-17T01:29:39.036Z,5.65
2018-01-17T01:32:07.543Z,5.75
2018-01-17T01:34:36.620Z,4.90
2018-01-17T01:37:05.906Z,5.18
2018-01-17T01:39:34.494Z,6.97
2018-01-17T01:42:03.724Z,6.18
2018-01-17T01:44:32.061Z,5.37
2018-01-17T01:47:00.462Z,7.25
2018-01-17T01:49:28.789Z,7.90
2018-01-17T01:51:57.089Z,8.60
2018-01-17T01:54:25.444Z,6.90
2018-01-17T01:56:54.129Z,7.45
2018-01-17T01:59:22.438Z,6.87
2018-01-17T02:01:51.648Z,8.35
2018-01-17T02:04:19.945Z,7.40
2018-01-17T02:06:48.257Z,6.85
2018-01-17T02:09:16.705Z,8.67
2018-01-17T02:11:45.218Z,8.18
2018-01-17T02:14:13.547Z,8.45
2018-01-17T02:16:42.626Z,7.80
2018-01-17T02:19:11.037Z,12.93
2018-01-17T02:21:40.361Z,7.47
2018-01-17T02:24:08.855Z,7.82
2018-01-17T02:26:37.205Z,7.47
2018-01-17T02:29:05.553Z,11.18
2018-01-17T02:31:37.197Z,9.88
2018-01-17T02:34:06.433Z,8.45
2018-01-17T02:36:34.913Z,12.10
2018-01-17T02:39:04.365Z,12.07
2018-01-17T02:41:32.709Z,9.10
2018-01-17T02:44:01.033Z,11.63
2018-01-17T02:46:29.340Z,9.48
2018-01-17T02:48:58.604Z,11.38
2018-01-17T02:51:26.917Z,11.07
2018-01-17T02:53:56.404Z,11.12
2018-01-17T02:56:24.685Z,11.05
2018-01-17T02:58:53.710Z,14.40
2018-01-17T03:01:22.014Z,11.15
2018-01-17T03:03:50.321Z,11.88
2018-01-17T03:06:18.628Z,10.45
2018-01-17T03:08:47.646Z,17.98
2018-01-17T03:11:15.923Z,16.17
2018-01-17T03:13:44.632Z,10.13
2018-01-17T03:16:12.961Z,11.02
2018-01-17T03:18:42.008Z,13.18
2018-01-17T03:21:10.536Z,9.90
2018-01-17T03:23:39.912Z,12.23
2018-01-17T03:26:08.373Z,9.23
2018-01-17T03:28:36.700Z,10.32
2018-01-17T03:31:05.050Z,11.12
2018-01-17T03:33:33.340Z,12.75
2018-01-17T03:36:01.930Z,9.40
2018-01-17T03:38:30.213Z,10.98
2018-01-17T03:40:58.512Z,12.37
2018-01-17T03:43:26.785Z,8.85
2018-01-17T03:45:55.061Z,10.57
2018-01-17T03:48:23.574Z,9.30
2018-01-17T03:50:51.848Z,8.60
2018-01-17T03:53:20.272Z,9.35
2018-01-17T03:55:48.559Z,10.38
2018-01-17T03:58:17.581Z,9.30
2018-01-17T04:00:46.893Z,8.23
2018-01-17T04:03:15.177Z,10.38
2018-01-17T04:05:43.484Z,9.88
2018-01-17T04:08:11.776Z,8.77
2018-01-17T04:10:40.105Z,8.10
2018-01-17T04:13:08.416Z,14.50
2018-01-17T04:15:36.684Z,9.15
2018-01-17T04:18:05.345Z,11.82
2018-01-17T04:20:33.819Z,9.13
2018-01-17T04:23:02.323Z,10.85
2018-01-17T04:25:30.625Z,12.60
2018-01-17T04:27:58.904Z,9.02
2018-01-17T04:30:27.202Z,8.48
2018-01-17T04:32:56.232Z,9.80
2018-01-17T04:35:24.941Z,9.30
2018-01-17T04:37:53.273Z,10.07
2018-01-17T04:40:21.582Z,11.55
2018-01-17T04:42:49.889Z,10.70
2018-01-17T04:45:18.933Z,10.38
2018-01-17T04:47:47.234Z,14.00
2018-01-17T04:50:15.543Z,10.55
2018-01-17T04:52:44.017Z,11.75
2018-01-17T04:55:12.472Z,11.15
2018-01-17T04:57:41.496Z,12.37
2018-01-17T05:00:09.828Z,13.45
2018-01-17T05:02:38.478Z,13.15
2018-01-17T05:05:07.529Z,13.00
2018-01-17T05:07:35.837Z,14.07
2018-01-17T05:10:04.890Z,11.85
2018-01-17T05:12:33.193Z,14.77
2018-01-17T05:15:01.735Z,11.48
2018-01-17T05:17:30.388Z,13.20
2018-01-17T05:19:59.403Z,10.18
2018-01-17T05:22:27.733Z,13.13
2018-01-17T05:24:56.361Z,9.98
2018-01-17T05:27:27.904Z,10.65
2018-01-17T05:29:57.092Z,10.82
2018-01-17T05:32:25.419Z,11.70
2018-01-17T05:34:53.752Z,11.05
2018-01-17T05:37:22.071Z,9.88
2018-01-17T05:39:50.377Z,12.43
2018-01-17T05:42:18.663Z,10.70
2018-01-17T05:44:46.973Z,9.68
2018-01-17T05:47:15.272Z,10.30
2018-01-17T05:49:43.607Z,11.77
2018-01-17T05:52:12.408Z,12.90
2018-01-17T05:54:41.585Z,9.98
2018-01-17T05:57:11.349Z,9.80
2018-01-17T05:59:39.752Z,9.90
2018-01-17T06:02:08.077Z,9.65
2018-01-17T06:04:36.370Z,8.60
2018-01-17T06:07:04.661Z,9.32
2018-01-17T06:09:33.076Z,7.95
2018-01-17T06:12:01.375Z,7.43
2018-01-17T06:14:30.003Z,7.72
2018-01-17T06:16:58.302Z,9.38
2018-01-17T06:19:26.596Z,8.57
2018-01-17T06:21:54.872Z,11.45
2018-01-17T06:24:24.748Z,9.32
2018-01-17T06:26:53.011Z,8.60
2018-01-17T06:29:21.322Z,7.70
2018-01-17T06:31:49.633Z,8.27
2018-01-17T06:34:19.428Z,9.48
2018-01-17T06:36:47.861Z,8.63
2018-01-17T06:39:18.081Z,7.70
2018-01-17T06:41:46.405Z,13.07
2018-01-17T06:44:14.747Z,8.45
2018-01-17T06:46:43.040Z,11.68
2018-01-17T06:49:11.368Z,9.70
2018-01-17T06:51:40.408Z,12.77
2018-01-17T06:54:08.764Z,9.80
2018-01-17T06:56:37.037Z,11.27
2018-01-17T06:59:05.361Z,12.20
2018-01-17T07:01:34.344Z,7.87
2018-01-17T07:04:02.660Z,8.23
2018-01-17T07:06:30.984Z,8.70
2018-01-17T07:08:59.449Z,8.32
2018-01-17T07:11:27.716Z,8.13
2018-01-17T07:13:56.304Z,8.82
2018-01-17T07:16:24.696Z,7.53
2018-01-17T07:18:53.380Z,7.72
2018-01-17T07:21:25.464Z,6.53
2018-01-17T07:23:53.832Z,8.50
2018-01-17T07:26:22.917Z,6.82
2018-01-17T07:28:51.331Z,6.00
2018-01-17T07:31:19.881Z,6.78
2018-01-17T07:33:48.638Z,5.93
2018-01-17T07:36:18.415Z,5.10
2018-01-17T07:38:46.725Z,6.15
2018-01-17T07:41:15.322Z,4.37
2018-01-17T07:43:43.857Z,2.97
2018-01-17T07:46:12.358Z,3.10
2018-01-17T07:48:40.972Z,2.45
2018-01-17T07:51:10.183Z,2.10
2018-01-17T07:53:38.541Z,2.65
2018-01-17T07:56:07.692Z,1.60
2018-01-17T07:58:36.128Z,1.67
2018-01-17T08:01:05.372Z,1.90
2018-01-17T08:03:33.676Z,1.55
2018-01-17T08:06:03.288Z,1.25
2018-01-17T08:08:31.597Z,1.67
2018-01-17T08:11:00.592Z,1.73
2018-01-17T08:13:28.971Z,1.65
2018-01-17T08:15:58.002Z,1.70
2018-01-17T08:18:26.369Z,1.50
2018-01-17T08:20:54.646Z,2.28
2018-01-17T08:23:23.042Z,1.60
2018-01-17T08:25:51.304Z,2.28
2018-01-17T08:28:19.761Z,2.65
2018-01-17T08:30:48.589Z,1.80
2018-01-17T08:33:17.177Z,3.10
2018-01-17T08:35:45.460Z,2.03
2018-01-17T08:38:13.937Z,1.95
2018-01-17T08:40:42.388Z,1.83
2018-01-17T08:43:10.684Z,2.85
2018-01-17T08:45:38.971Z,3.85
2018-01-17T08:48:07.682Z,3.17
2018-01-17T08:50:36.690Z,1.80
2018-01-17T08:53:04.989Z,2.40
2018-01-17T08:55:33.280Z,1.90
2018-01-17T08:58:01.584Z,2.67
2018-01-17T09:00:29.876Z,3.17
2018-01-17T09:02:58.186Z,2.97
2018-01-17T09:05:27.247Z,3.40
2018-01-17T09:07:55.528Z,4.03
2018-01-17T09:10:24.208Z,3.58
2018-01-17T09:12:53.968Z,2.92
2018-01-17T09:15:22.264Z,3.42
2018-01-17T09:17:50.572Z,4.32
2018-01-17T09:20:18.859Z,4.32
2018-01-17T09:22:48.948Z,5.00
2018-01-17T09:25:17.253Z,2.95
2018-01-17T09:27:46.301Z,3.20
2018-01-17T09:30:14.877Z,3.55
2018-01-17T09:32:43.332Z,3.35
2018-01-17T09:35:11.992Z,3.50
2018-01-17T09:37:40.252Z,5.12
2018-01-17T09:40:08.572Z,5.05
2018-01-17T09:42:36.874Z,3.22
2018-01-17T09:45:05.297Z,2.90
2018-01-17T09:47:33.765Z,4.45
2018-01-17T09:50:02.158Z,3.37
2018-01-17T09:52:30.460Z,3.28
2018-01-17T09:54:59.265Z,3.50
2018-01-17T09:57:27.707Z,4.50
2018-01-17T09:59:56.005Z,3.20
2018-01-17T10:02:24.373Z,2.63
2018-01-17T10:04:52.977Z,2.77
2018-01-17T10:07:21.498Z,3.13
2018-01-17T10:09:49.852Z,5.50
2018-01-17T10:12:18.653Z,3.40
2018-01-17T10:14:46.951Z,4.57
2018-01-17T10:17:15.257Z,3.33
2018-01-17T10:19:43.546Z,3.73
2018-01-17T10:22:11.896Z,2.70
2018-01-17T10:24:40.236Z,3.03
2018-01-17T10:27:08.560Z,2.40
2018-01-17T10:29:37.050Z,2.87
2018-01-17T10:32:05.521Z,4.93
2018-01-17T10:34:33.817Z,3.37
2018-01-17T10:37:02.680Z,6.53
2018-01-17T10:39:31.121Z,2.60
2018-01-17T10:41:59.506Z,4.73
2018-01-17T10:44:27.899Z,1.67
2018-01-17T10:46:56.217Z,5.53
2018-01-17T10:49:24.810Z,2.83
2018-01-17T10:51:53.901Z,1.60
2018-01-17T10:54:22.185Z,2.37
2018-01-17T10:56:51.009Z,3.23
2018-01-17T10:59:19.296Z,2.42
2018-01-17T11:01:47.668Z,2.90
2018-01-17T11:04:15.968Z,2.17
2018-01-17T11:06:44.270Z,2.40
2018-01-17T11:09:12.601Z,2.07
2018-01-17T11:11:40.907Z,3.43
2018-01-17T11:14:09.583Z,3.93
2018-01-17T11:16:37.885Z,5.80
2018-01-17T11:19:06.318Z,3.33
2018-01-17T11:21:34.601Z,3.13
2018-01-17T11:24:02.941Z,4.40
2018-01-17T11:26:31.256Z,4.93
2018-01-17T11:29:00.677Z,7.87
2018-01-17T11:31:28.980Z,8.40
2018-01-17T11:33:57.699Z,8.30
2018-01-17T11:36:26.777Z,6.90
2018-01-17T11:38:55.082Z,5.30
2018-01-17T11:41:24.121Z,11.77
2018-01-17T11:43:52.493Z,3.90
2018-01-17T11:46:20.957Z,3.43
2018-01-17T11:48:49.276Z,4.37
2018-01-17T11:51:17.938Z,7.17
2018-01-17T11:53:46.237Z,2.73
2018-01-17T11:56:14.576Z,3.30
2018-01-17T11:58:42.917Z,5.37
2018-01-17T12:01:11.258Z,6.13
2018-01-17T12:03:39.581Z,4.03
2018-01-17T12:06:08.804Z,4.23
2018-01-17T12:08:37.134Z,2.30
2018-01-17T12:11:06.082Z,2.53
2018-01-17T12:13:34.365Z,3.70
2018-01-17T12:16:02.709Z,2.67
2018-01-17T12:18:31.751Z,2.53
2018-01-17T12:21:00.222Z,1.53
2018-01-17T12:23:28.517Z,2.00
2018-01-17T12:25:56.835Z,5.60
2018-01-17T12:28:25.149Z,2.00
2018-01-17T12:30:54.177Z,1.67
2018-01-17T12:33:22.545Z,3.63
2018-01-17T12:35:51.346Z,3.23
2018-01-17T12:38:19.721Z,4.03
2018-01-17T12:40:48.788Z,2.50
2018-01-17T12:43:17.845Z,2.30
2018-01-17T12:45:46.856Z,1.93
2018-01-17T12:48:15.946Z,4.27
2018-01-17T12:50:44.273Z,3.57
2018-01-17T12:53:12.736Z,3.57
2018-01-17T12:55:41.082Z,2.03
2018-01-17T12:58:09.854Z,2.20
2018-01-17T13:00:38.970Z,1.60
2018-01-17T13:03:07.269Z,4.27
2018-01-17T13:05:35.758Z,2.07
2018-01-17T13:08:04.082Z,3.40
2018-01-17T13:10:33.895Z,4.60
2018-01-17T13:13:02.237Z,1.33
2018-01-17T13:15:31.073Z,1.87
2018-01-17T13:18:00.334Z,2.13
2018-01-17T13:20:28.701Z,2.43
2018-01-17T13:22:57.048Z,3.60
2018-01-17T13:25:26.270Z,3.10
2018-01-17T13:27:54.621Z,2.93
2018-01-17T13:30:22.986Z,5.17
2018-01-17T13:32:51.409Z,3.43
2018-01-17T13:35:20.251Z,6.63
2018-01-17T13:37:49.425Z,2.60
2018-01-17T13:40:17.757Z,3.50
2018-01-17T13:42:46.052Z,3.00
2018-01-17T13:45:14.390Z,5.77
2018-01-17T13:47:42.685Z,3.20
2018-01-17T13:50:11.785Z,2.90
2018-01-17T13:52:40.538Z,4.90
2018-01-17T13:55:09.431Z,4.77
2018-01-17T13:57:37.708Z,5.27
2018-01-17T14:00:06.980Z,4.60
2018-01-17T14:02:35.257Z,2.70
2018-01-17T14:05:03.797Z,3.80
2018-01-17T14:07:32.093Z,5.57
2018-01-17T14:10:00.393Z,4.27
2018-01-17T14:12:29.085Z,10.37
2018-01-17T14:14:57.396Z,3.83
2018-01-17T14:17:25.679Z,4.87
2018-01-17T14:19:54.741Z,7.13
2018-01-17T14:22:23.080Z,5.93
2018-01-17T14:24:51.686Z,4.20
2018-01-17T14:27:19.990Z,3.17
2018-01-17T14:29:48.349Z,3.47
2018-01-17T14:32:16.689Z,1.97
2018-01-17T14:34:44.991Z,3.90
2018-01-17T14:37:13.344Z,3.23
2018-01-17T14:39:41.677Z,4.63
2018-01-17T14:42:09.984Z,6.50
2018-01-17T14:44:39.153Z,4.70
2018-01-17T14:47:08.925Z,5.27
2018-01-17T14:49:38.514Z,2.83
2018-01-17T14:52:06.826Z,2.73
2018-01-17T14:54:35.163Z,3.00
2018-01-17T14:57:04.285Z,3.40
2018-01-17T14:59:32.629Z,1.10
2018-01-17T15:02:00.983Z,4.83
2018-01-17T15:04:29.613Z,4.80
2018-01-17T15:06:57.912Z,4.23
2018-01-17T15:09:26.330Z,4.90
2018-01-17T15:11:54.923Z,2.40
2018-01-17T15:14:23.692Z,3.13
2018-01-17T15:16:52.160Z,3.97
2018-01-17T15:19:20.592Z,2.33
2018-01-17T15:21:49.741Z,7.20
2018-01-17T15:24:18.413Z,4.40
2018-01-17T15:26:47.050Z,2.77
2018-01-17T15:29:16.377Z,8.03
2018-01-17T15:31:44.668Z,3.50
2018-01-17T15:34:13.012Z,5.27
2018-01-17T15:36:41.521Z,4.00
2018-01-17T15:39:09.840Z,4.13
2018-01-17T15:41:38.408Z,4.53
2018-01-17T15:44:06.771Z,2.53
2018-01-17T15:46:35.033Z,2.00
2018-01-17T15:49:04.049Z,1.67
2018-01-17T15:51:32.537Z,1.73
2018-01-17T15:54:00.878Z,2.57
2018-01-17T15:56:29.555Z,2.40
2018-01-17T15:58:58.690Z,2.87
2018-01-17T16:01:27.765Z,5.40
2018-01-17T16:03:56.071Z,3.33
2018-01-17T16:06:24.378Z,2.43
2018-01-17T16:08:53.443Z,3.30
2018-01-17T16:11:21.778Z,5.60
2018-01-17T16:13:51.115Z,3.37
2018-01-17T16:16:19.677Z,2.80
2018-01-17T16:18:47.993Z,3.47
2018-01-17T16:21:16.437Z,2.20
2018-01-17T16:23:44.762Z,3.73
2018-01-17T16:26:13.081Z,4.15
2018-01-17T16:28:42.121Z,2.70
2018-01-17T16:31:11.647Z,2.47
2018-01-17T16:33:40.685Z,2.22
2018-01-17T16:36:08.977Z,2.27
2018-01-17T16:38:37.477Z,2.87
2018-01-17T16:41:05.775Z,2.60
2018-01-17T16:43:34.265Z,4.23
2018-01-17T16:46:02.884Z,3.23
2018-01-17T16:48:31.225Z,1.90
2018-01-17T16:50:59.546Z,4.70
2018-01-17T16:53:27.857Z,2.67
2018-01-17T16:55:56.336Z,2.05
2018-01-17T16:58:25.125Z,3.30
2018-01-17T17:00:53.437Z,4.45
2018-01-17T17:03:21.804Z,4.27
2018-01-17T17:05:51.138Z,2.77
2018-01-17T17:08:20.189Z,3.17
2018-01-17T17:10:48.492Z,2.57
2018-01-17T17:13:16.789Z,4.35
2018-01-17T17:15:45.611Z,3.37
2018-01-17T17:18:13.918Z,2.27
2018-01-17T17:20:42.386Z,6.53
2018-01-17T17:23:12.256Z,8.10
2018-01-17T17:25:40.590Z,3.13
2018-01-17T17:28:08.888Z,4.00
2018-01-17T17:30:37.194Z,5.10
2018-01-17T17:33:05.726Z,2.67
2018-01-17T17:35:34.012Z,3.53
2018-01-17T17:38:02.344Z,3.33
2018-01-17T17:40:30.639Z,3.63
2018-01-17T17:42:58.961Z,2.23
2018-01-17T17:45:28.311Z,3.67
2018-01-17T17:47:56.833Z,3.62
2018-01-17T17:50:25.140Z,5.43
2018-01-17T17:52:54.180Z,2.50
2018-01-17T17:55:22.622Z,3.17
2018-01-17T17:57:51.489Z,2.00
2018-01-17T18:00:20.105Z,2.17
2018-01-17T18:02:49.000Z,5.12
2018-01-17T18:05:17.658Z,2.30
2018-01-17T18:07:46.762Z,4.32
2018-01-17T18:10:15.112Z,3.12
2018-01-17T18:12:43.463Z,2.40
2018-01-17T18:15:11.820Z,1.93
2018-01-17T18:17:40.112Z,2.15
2018-01-17T18:20:08.785Z,3.90
2018-01-17T18:22:37.082Z,3.27
2018-01-17T18:25:05.370Z,4.97
2018-01-17T18:27:33.665Z,2.62
2018-01-17T18:30:03.013Z,2.30
2018-01-17T18:32:31.345Z,1.80
2018-01-17T18:34:59.685Z,4.30
2018-01-17T18:37:28.057Z,3.97
2018-01-17T18:39:56.559Z,3.07
2018-01-17T18:42:25.279Z,3.53
2018-01-17T18:44:54.072Z,2.20
2018-01-17T18:47:23.169Z,2.40
2018-01-17T18:49:51.543Z,1.90
2018-01-17T18:52:20.001Z,1.97
2018-01-17T18:54:48.301Z,4.00
2018-01-17T18:57:16.634Z,1.73
2018-01-17T18:59:44.951Z,2.13
2018-01-17T19:02:13.248Z,2.93
2018-01-17T19:04:42.277Z,2.83
2018-01-17T19:07:10.845Z,2.70
2018-01-17T19:09:39.161Z,2.22
2018-01-17T19:12:07.609Z,3.75
2018-01-17T19:14:36.456Z,2.20
2018-01-17T19:17:04.798Z,3.20
2018-01-17T19:19:33.625Z,4.47
2018-01-17T19:22:03.480Z,6.50
2018-01-17T19:24:31.807Z,5.20
2018-01-17T19:27:00.110Z,5.50
2018-01-17T19:29:28.441Z,6.63
2018-01-17T19:31:56.753Z,5.07
2018-01-17T19:34:25.044Z,6.45
2018-01-17T19:36:53.545Z,5.03
2018-01-17T19:39:21.877Z,2.53
2018-01-17T19:41:50.192Z,3.92
2018-01-17T19:44:19.842Z,3.63
2018-01-17T19:46:48.173Z,6.45
2018-01-17T19:49:16.669Z,3.72
2018-01-17T19:51:44.998Z,1.50
2018-01-17T19:54:13.668Z,3.35
2018-01-17T19:56:42.003Z,4.18
2018-01-17T19:59:10.338Z,3.33
2018-01-17T20:01:38.684Z,3.70
2018-01-17T20:04:06.987Z,2.80
2018-01-17T20:06:35.389Z,2.20
2018-01-17T20:09:04.269Z,2.67
2018-01-17T20:11:32.997Z,2.50
2018-01-17T20:14:01.385Z,3.30
2018-01-17T20:16:29.836Z,3.83
2018-01-17T20:18:58.149Z,3.80
2018-01-17T20:21:26.566Z,2.12
2018-01-17T20:23:54.872Z,2.78
2018-01-17T20:26:23.960Z,3.30
2018-01-17T20:28:52.805Z,3.80
2018-01-17T20:31:21.149Z,5.62
2018-01-17T20:33:49.785Z,3.45
2018-01-17T20:36:18.151Z,4.55
2018-01-17T20:38:46.668Z,5.53
2018-01-17T20:41:15.330Z,2.90
2018-01-17T20:43:44.124Z,7.22
2018-01-17T20:46:12.680Z,5.15
2018-01-17T20:48:41.257Z,6.22
2018-01-17T20:51:09.768Z,7.28
2018-01-17T20:53:38.252Z,9.35
2018-01-17T20:56:06.628Z,4.53
2018-01-17T20:58:34.938Z,4.82
2018-01-17T21:01:03.671Z,8.70
2018-01-17T21:03:32.583Z,6.70
2018-01-17T21:06:00.904Z,4.40
2018-01-17T21:08:29.962Z,9.30
2018-01-17T21:10:58.257Z,7.78
2018-01-17T21:13:26.577Z,7.35
2018-01-17T21:15:54.912Z,7.30
2018-01-17T21:18:23.254Z,8.18
2018-01-17T21:20:51.631Z,8.57
2018-01-17T21:23:19.930Z,6.57
2018-01-17T21:25:48.277Z,6.50
2018-01-17T21:28:16.994Z,6.25
2018-01-17T21:30:45.303Z,6.25
2018-01-17T21:33:13.613Z,3.58
2018-01-17T21:35:42.217Z,4.87
2018-01-17T21:38:10.577Z,5.60
2018-01-17T21:40:38.925Z,5.07
2018-01-17T21:43:11.832Z,6.50
2018-01-17T21:45:57.597Z,8.48
2018-01-17T21:48:26.661Z,7.75
2018-01-17T21:50:55.120Z,6.40
2018-01-17T21:53:23.705Z,7.60
2018-01-17T21:55:52.058Z,5.87
2018-01-17T21:58:20.376Z,5.15
2018-01-17T22:00:48.681Z,3.67
2018-01-17T22:03:17.723Z,9.70
2018-01-17T22:05:46.129Z,4.05
2018-01-17T22:08:14.424Z,3.58
2018-01-17T22:10:43.365Z,5.05
2018-01-17T22:13:12.186Z,4.55
2018-01-17T22:15:40.672Z,2.92
2018-01-17T22:18:08.981Z,2.65
2018-01-17T22:20:37.289Z,7.05
2018-01-17T22:23:05.648Z,4.53
2018-01-17T22:25:34.870Z,5.15
2018-01-17T22:31:34.562Z,4.72
2018-01-17T22:34:03.169Z,2.92
2018-01-17T22:36:31.505Z,3.47
2018-01-17T22:39:00.229Z,2.28
2018-01-17T22:41:29.268Z,1.85
2018-01-17T22:43:57.749Z,4.53
2018-01-17T22:46:26.037Z,3.80
2018-01-17T22:48:54.325Z,5.97
2018-01-17T22:51:22.649Z,1.70
2018-01-17T22:53:52.310Z,4.10
2018-01-17T22:56:20.864Z,2.05
2018-01-17T22:58:49.502Z,1.20
2018-01-17T23:01:17.847Z,2.10
2018-01-17T23:03:46.215Z,2.95
2018-01-17T23:06:14.540Z,1.37
2018-01-17T23:08:42.864Z,1.00
2018-01-17T23:11:11.429Z,1.00
2018-01-17T23:13:41.672Z,1.65
2018-01-17T23:16:10.173Z,3.22
2018-01-17T23:18:38.602Z,3.25
2018-01-17T23:21:07.041Z,2.65
2018-01-17T23:23:35.332Z,2.00
2018-01-17T23:26:03.739Z,1.70
2018-01-17T23:28:32.488Z,2.67
2018-01-17T23:31:00.983Z,2.22
2018-01-17T23:33:29.341Z,4.78
2018-01-17T23:35:57.657Z,3.00
2018-01-17T23:38:26.196Z,2.00
2018-01-17T23:40:54.655Z,3.42
2018-01-17T23:43:23.550Z,5.40
2018-01-17T23:45:51.874Z,5.00
2018-01-17T23:48:20.185Z,5.03
2018-01-17T23:50:48.478Z,6.37
2018-01-17T23:53:16.809Z,6.75
2018-01-17T23:55:45.557Z,6.72
2018-01-17T23:58:14.153Z,7.03
